createdAt,value
2019-03-09T00:01:25.711Z,7.90
2019-03-09T00:03:54.817Z,7.90
2019-03-09T00:06:23.901Z,7.90
2019-03-09T00:08:52.970Z,8.00
2019-03-09T00:11:22.121Z,8.00
2019-03-09T00:13:51.224Z,8.00
2019-03-09T00:16:21.179Z,8.00
2019-03-09T00:18:51.111Z,8.00
2019-03-09T00:21:20.203Z,8.00
2019-03-09T00:24:06.997Z,8.00
2019-03-09T00:26:46.419Z,8.00
2019-03-09T00:29:40.433Z,8.00
2019-03-09T00:32:12.597Z,8.10
2019-03-09T00:34:42.036Z,8.10
2019-03-09T00:37:11.147Z,8.10
2019-03-09T00:39:40.215Z,8.10
2019-03-09T00:42:09.319Z,8.10
2019-03-09T00:44:38.455Z,8.10
2019-03-09T00:47:07.846Z,8.10
2019-03-09T00:49:36.965Z,8.00
2019-03-09T00:52:06.041Z,8.10
2019-03-09T00:54:35.124Z,8.10
2019-03-09T00:57:04.217Z,8.10
2019-03-09T00:59:33.301Z,8.10
2019-03-09T01:02:02.389Z,8.10
2019-03-09T01:04:31.479Z,8.00
2019-03-09T01:07:00.562Z,8.00
2019-03-09T01:09:29.699Z,8.00
2019-03-09T01:11:58.765Z,8.00
2019-03-09T01:14:27.833Z,7.90
2019-03-09T01:16:56.913Z,8.00
2019-03-09T01:19:26.004Z,8.00
2019-03-09T01:21:55.084Z,8.10
2019-03-09T01:24:24.171Z,8.10
2019-03-09T01:26:53.275Z,8.10
2019-03-09T01:29:22.335Z,8.10
2019-03-09T01:31:51.422Z,8.10
2019-03-09T01:34:20.511Z,8.10
2019-03-09T01:36:49.606Z,8.00
2019-03-09T01:39:18.673Z,8.00
2019-03-09T01:41:47.750Z,8.00
2019-03-09T01:44:17.232Z,7.90
2019-03-09T01:46:46.306Z,7.90
2019-03-09T01:49:15.462Z,8.00
2019-03-09T01:51:44.551Z,8.00
2019-03-09T01:54:13.683Z,8.00
2019-03-09T01:56:42.752Z,8.00
2019-03-09T01:59:11.767Z,8.00
2019-03-09T02:01:40.937Z,8.00
2019-03-09T02:04:10.043Z,8.00
2019-03-09T02:06:39.127Z,8.00
2019-03-09T02:09:08.365Z,8.00
2019-03-09T02:11:37.457Z,8.10
2019-03-09T02:14:06.527Z,8.10
2019-03-09T02:16:35.762Z,8.10
2019-03-09T02:19:04.966Z,8.10
2019-03-09T02:21:34.064Z,8.10
2019-03-09T02:24:03.109Z,8.10
2019-03-09T02:26:32.205Z,8.10
2019-03-09T02:29:01.334Z,8.10
2019-03-09T02:31:30.488Z,8.10
2019-03-09T02:33:59.581Z,8.10
2019-03-09T02:36:28.640Z,8.20
2019-03-09T02:39:07.623Z,8.20
2019-03-09T02:41:36.698Z,8.10
2019-03-09T02:44:05.786Z,8.00
2019-03-09T02:46:34.860Z,8.00
2019-03-09T02:49:03.933Z,7.90
2019-03-09T02:51:33.034Z,7.70
2019-03-09T02:54:02.124Z,7.60
2019-03-09T02:56:31.253Z,7.50
2019-03-09T02:59:00.338Z,7.40
2019-03-09T03:01:47.648Z,7.30
2019-03-09T03:04:16.726Z,7.20
2019-03-09T03:06:45.887Z,7.10
2019-03-09T03:09:14.970Z,7.00
2019-03-09T03:11:44.104Z,6.90
2019-03-09T03:14:13.237Z,6.80
2019-03-09T03:16:42.335Z,6.80
2019-03-09T03:19:11.477Z,6.80
2019-03-09T03:21:40.583Z,6.80
2019-03-09T03:24:09.644Z,6.80
2019-03-09T03:26:38.735Z,6.70
2019-03-09T03:29:07.804Z,6.70
2019-03-09T03:31:36.898Z,6.70
2019-03-09T03:34:06.025Z,6.70
2019-03-09T03:36:35.088Z,6.60
2019-03-09T03:39:06.441Z,6.60
2019-03-09T03:41:35.692Z,6.60
2019-03-09T03:44:04.801Z,6.50
2019-03-09T03:46:33.866Z,6.60
2019-03-09T03:49:03.942Z,6.50
2019-03-09T03:51:33.208Z,6.60
2019-03-09T03:54:02.385Z,6.60
2019-03-09T03:56:31.580Z,6.50
2019-03-09T03:59:00.659Z,6.60
2019-03-09T04:01:29.746Z,6.60
2019-03-09T04:03:58.797Z,6.50
2019-03-09T04:06:27.971Z,6.80
2019-03-09T04:08:57.247Z,6.50
2019-03-09T04:11:26.370Z,6.50
2019-03-09T04:13:55.473Z,6.50
2019-03-09T04:16:24.518Z,6.50
2019-03-09T04:18:53.590Z,6.50
2019-03-09T04:21:22.773Z,6.50
2019-03-09T04:23:51.856Z,6.50
2019-03-09T04:26:20.923Z,6.50
2019-03-09T04:28:50.068Z,6.40
2019-03-09T04:31:19.182Z,6.50
2019-03-09T04:33:48.247Z,6.50
2019-03-09T04:36:17.324Z,6.50
2019-03-09T04:38:46.393Z,6.60
2019-03-09T04:41:15.471Z,6.50
2019-03-09T04:43:44.549Z,6.50
2019-03-09T04:46:13.570Z,6.50
2019-03-09T04:48:42.652Z,6.50
2019-03-09T04:51:11.710Z,6.50
2019-03-09T04:53:40.792Z,6.60
2019-03-09T04:56:09.857Z,6.60
2019-03-09T04:58:38.956Z,6.60
2019-03-09T05:01:08.021Z,6.60
2019-03-09T05:03:37.089Z,6.60
2019-03-09T05:06:06.500Z,6.60
2019-03-09T05:08:51.893Z,6.60
2019-03-09T05:11:27.234Z,6.60
2019-03-09T05:14:00.613Z,6.60
2019-03-09T05:16:29.694Z,6.60
2019-03-09T05:18:58.789Z,6.60
2019-03-09T05:21:28.045Z,6.70
2019-03-09T05:23:57.100Z,6.70
2019-03-09T05:26:26.176Z,6.70
2019-03-09T05:28:55.230Z,6.70
2019-03-09T05:31:24.287Z,6.70
2019-03-09T05:33:53.354Z,6.70
2019-03-09T05:36:22.575Z,6.70
2019-03-09T05:38:51.626Z,6.80
2019-03-09T05:41:20.721Z,6.80
2019-03-09T05:43:49.793Z,6.80
2019-03-09T05:46:18.863Z,6.80
2019-03-09T05:48:47.940Z,6.80
2019-03-09T05:51:17.032Z,6.80
2019-03-09T05:53:46.096Z,6.80
2019-03-09T05:56:15.168Z,6.90
2019-03-09T05:58:44.218Z,6.90
2019-03-09T06:01:13.306Z,6.90
2019-03-09T06:03:42.391Z,6.90
2019-03-09T06:06:13.708Z,6.90
2019-03-09T06:08:42.868Z,6.90
2019-03-09T06:11:11.940Z,6.90
2019-03-09T06:13:41.083Z,7.00
2019-03-09T06:16:10.158Z,6.90
2019-03-09T06:18:39.275Z,7.00
2019-03-09T06:21:08.322Z,7.00
2019-03-09T06:23:37.381Z,7.00
2019-03-09T06:26:06.443Z,7.00
2019-03-09T06:28:35.493Z,7.00
2019-03-09T06:31:04.595Z,7.00
2019-03-09T06:33:34.963Z,7.00
2019-03-09T06:36:17.150Z,7.00
2019-03-09T06:39:07.235Z,7.00
2019-03-09T06:41:43.377Z,7.00
2019-03-09T06:44:12.442Z,7.10
2019-03-09T06:46:41.529Z,7.10
2019-03-09T06:49:10.600Z,7.10
2019-03-09T06:51:39.869Z,7.20
2019-03-09T06:54:08.965Z,7.20
2019-03-09T06:56:38.039Z,7.20
2019-03-09T06:59:07.151Z,7.30
2019-03-09T07:01:36.221Z,7.30
2019-03-09T07:04:05.302Z,7.30
2019-03-09T07:06:34.383Z,7.30
2019-03-09T07:09:04.779Z,7.40
2019-03-09T07:11:33.930Z,7.40
2019-03-09T07:14:39.625Z,7.40
2019-03-09T07:17:08.711Z,7.50
2019-03-09T07:19:37.811Z,7.50
2019-03-09T07:22:06.941Z,7.50
2019-03-09T07:24:36.013Z,7.60
2019-03-09T07:27:05.102Z,7.60
2019-03-09T07:29:34.194Z,7.70
2019-03-09T07:32:03.288Z,7.70
2019-03-09T07:34:32.378Z,7.70
2019-03-09T07:37:01.462Z,7.80
2019-03-09T07:39:30.554Z,7.80
2019-03-09T07:41:59.634Z,7.80
2019-03-09T07:44:28.897Z,7.80
2019-03-09T07:46:57.996Z,7.80
2019-03-09T07:49:27.167Z,7.90
2019-03-09T07:51:56.230Z,7.90
2019-03-09T07:54:25.336Z,7.90
2019-03-09T07:56:54.591Z,7.90
2019-03-09T07:59:23.779Z,8.00
2019-03-09T08:01:52.912Z,8.00
2019-03-09T08:04:21.996Z,8.00
2019-03-09T08:06:51.067Z,8.10
2019-03-09T08:09:20.181Z,8.20
2019-03-09T08:11:49.259Z,8.20
2019-03-09T08:14:18.355Z,8.20
2019-03-09T08:16:49.213Z,8.20
2019-03-09T08:19:18.386Z,8.20
2019-03-09T08:21:47.457Z,8.10
2019-03-09T08:24:16.531Z,8.10
2019-03-09T08:26:45.626Z,8.10
2019-03-09T08:29:14.720Z,8.10
2019-03-09T08:31:43.873Z,8.10
2019-03-09T08:34:12.948Z,8.10
2019-03-09T08:36:42.037Z,8.10
2019-03-09T08:39:11.131Z,8.20
2019-03-09T08:41:40.259Z,8.10
2019-03-09T08:44:09.456Z,8.10
2019-03-09T08:46:38.569Z,8.20
2019-03-09T08:49:07.636Z,8.30
2019-03-09T08:51:36.712Z,8.30
2019-03-09T08:54:05.934Z,8.30
2019-03-09T08:56:35.058Z,8.40
2019-03-09T08:59:04.181Z,8.50
2019-03-09T09:01:33.251Z,8.60
2019-03-09T09:04:02.341Z,8.70
2019-03-09T09:06:31.432Z,8.80
2019-03-09T09:09:00.582Z,8.80
2019-03-09T09:11:29.649Z,8.80
2019-03-09T09:13:58.731Z,8.90
2019-03-09T09:16:27.823Z,9.00
2019-03-09T09:18:56.898Z,9.00
2019-03-09T09:21:25.995Z,9.00
2019-03-09T09:23:55.045Z,9.00
2019-03-09T09:26:25.784Z,8.90
2019-03-09T09:28:54.844Z,9.00
2019-03-09T09:31:23.923Z,9.10
2019-03-09T09:33:53.005Z,9.10
2019-03-09T09:36:22.150Z,9.10
2019-03-09T09:38:51.225Z,9.20
2019-03-09T09:41:20.312Z,9.20
2019-03-09T09:43:49.385Z,9.20
2019-03-09T09:46:18.465Z,9.30
2019-03-09T09:48:47.573Z,9.30
2019-03-09T09:51:16.647Z,9.30
2019-03-09T09:53:45.771Z,9.30
2019-03-09T09:56:14.835Z,9.20
2019-03-09T09:58:43.940Z,9.20
2019-03-09T10:01:13.023Z,9.20
2019-03-09T10:03:42.093Z,9.20
2019-03-09T10:06:11.170Z,9.30
2019-03-09T10:08:40.224Z,9.30
2019-03-09T10:11:09.311Z,9.30
2019-03-09T10:13:38.414Z,9.30
2019-03-09T10:16:07.490Z,9.40
2019-03-09T10:18:36.564Z,9.30
2019-03-09T10:21:05.654Z,9.40
2019-03-09T10:23:34.718Z,9.40
2019-03-09T10:26:03.777Z,9.50
2019-03-09T10:28:32.915Z,9.70
2019-03-09T10:31:02.099Z,9.80
2019-03-09T10:33:31.203Z,9.80
2019-03-09T10:36:00.277Z,9.80
2019-03-09T10:38:29.377Z,9.80
2019-03-09T10:40:58.449Z,9.80
2019-03-09T10:43:27.633Z,9.90
2019-03-09T10:45:56.705Z,9.90
2019-03-09T10:48:25.780Z,9.90
2019-03-09T10:50:54.868Z,9.80
2019-03-09T10:53:24.035Z,9.80
2019-03-09T10:55:53.115Z,9.70
2019-03-09T10:58:22.191Z,9.70
2019-03-09T11:00:51.293Z,9.70
2019-03-09T11:03:20.373Z,9.60
2019-03-09T11:05:49.481Z,9.50
2019-03-09T11:08:18.518Z,9.60
2019-03-09T11:10:47.623Z,9.60
2019-03-09T11:13:16.705Z,9.60
2019-03-09T11:15:45.945Z,9.70
2019-03-09T11:18:15.031Z,9.70
2019-03-09T11:20:44.119Z,9.70
2019-03-09T11:23:13.205Z,9.70
2019-03-09T11:25:42.281Z,9.70
2019-03-09T11:28:13.110Z,9.70
2019-03-09T11:30:42.199Z,9.70
2019-03-09T11:33:11.317Z,9.70
2019-03-09T11:35:40.401Z,9.60
2019-03-09T11:38:09.511Z,9.60
2019-03-09T11:40:38.635Z,9.50
2019-03-09T11:43:07.794Z,9.50
2019-03-09T11:45:36.912Z,9.50
2019-03-09T11:48:05.995Z,9.50
2019-03-09T11:50:35.099Z,9.50
2019-03-09T11:53:04.404Z,9.50
2019-03-09T11:55:33.604Z,9.50
2019-03-09T11:58:02.676Z,9.40
2019-03-09T12:00:33.745Z,9.50
2019-03-09T12:03:02.832Z,9.50
2019-03-09T12:05:32.004Z,9.40
2019-03-09T12:08:01.181Z,9.50
2019-03-09T12:10:30.264Z,9.40
2019-03-09T12:12:59.371Z,9.50
2019-03-09T12:15:28.444Z,9.50
2019-03-09T12:17:57.585Z,9.50
2019-03-09T12:20:28.284Z,9.60
2019-03-09T12:23:01.583Z,9.60
2019-03-09T12:25:29.778Z,9.60
2019-03-09T12:27:58.978Z,9.60
2019-03-09T12:30:28.066Z,9.50
2019-03-09T12:32:57.164Z,9.50
2019-03-09T12:35:26.270Z,9.40
2019-03-09T12:37:55.425Z,9.40
2019-03-09T12:40:27.338Z,9.30
2019-03-09T12:42:56.420Z,9.40
2019-03-09T12:45:25.547Z,9.40
2019-03-09T12:47:54.630Z,9.40
2019-03-09T12:50:23.732Z,9.30
2019-03-09T12:52:52.844Z,9.30
2019-03-09T12:55:22.009Z,9.20
2019-03-09T12:57:51.109Z,9.20
2019-03-09T13:00:20.617Z,9.10
2019-03-09T13:02:49.875Z,9.10
2019-03-09T13:05:18.965Z,9.20
2019-03-09T13:07:48.072Z,9.30
2019-03-09T13:10:17.382Z,9.30
2019-03-09T13:12:46.714Z,9.30
2019-03-09T13:15:16.411Z,9.40
2019-03-09T13:17:45.483Z,9.50
2019-03-09T13:20:14.933Z,9.50
2019-03-09T13:22:44.063Z,9.60
2019-03-09T13:25:13.364Z,9.70
2019-03-09T13:27:42.625Z,9.70
2019-03-09T13:30:14.274Z,9.80
2019-03-09T13:32:43.372Z,9.80
2019-03-09T13:35:12.482Z,9.80
2019-03-09T13:37:41.643Z,9.80
2019-03-09T13:40:10.904Z,9.80
2019-03-09T13:42:39.982Z,9.90
2019-03-09T13:45:10.118Z,9.90
2019-03-09T13:47:39.226Z,9.90
2019-03-09T13:50:09.247Z,9.80
2019-03-09T13:52:38.342Z,9.80
2019-03-09T13:55:07.481Z,9.80
2019-03-09T13:57:36.546Z,9.70
2019-03-09T14:00:06.874Z,9.70
2019-03-09T14:02:36.064Z,9.60
2019-03-09T14:05:05.273Z,9.60
2019-03-09T14:07:34.508Z,9.60
2019-03-09T14:10:03.650Z,9.50
2019-03-09T14:12:32.765Z,9.60
2019-03-09T14:15:01.885Z,9.50
2019-03-09T14:17:31.102Z,9.70
2019-03-09T14:22:38.963Z,9.90
2019-03-09T14:25:08.695Z,10.10
2019-03-09T14:27:37.901Z,10.30
2019-03-09T14:30:07.873Z,10.40
2019-03-09T14:32:36.996Z,10.40
2019-03-09T14:35:06.854Z,10.40
2019-03-09T14:37:36.141Z,10.40
2019-03-09T14:40:05.806Z,10.40
2019-03-09T14:42:34.901Z,10.30
2019-03-09T14:45:04.223Z,10.30
2019-03-09T14:47:33.325Z,10.30
2019-03-09T14:50:02.435Z,10.40
2019-03-09T14:52:31.542Z,10.40
2019-03-09T14:55:00.703Z,10.40
2019-03-09T14:57:30.059Z,10.50
2019-03-09T14:59:59.168Z,10.50
2019-03-09T15:02:28.263Z,10.50
2019-03-09T15:04:57.377Z,10.50
2019-03-09T15:07:26.595Z,10.50
2019-03-09T15:09:55.707Z,10.50
2019-03-09T15:12:24.851Z,10.50
2019-03-09T15:14:53.945Z,10.50
2019-03-09T15:17:23.043Z,10.40
2019-03-09T15:19:52.207Z,10.40
2019-03-09T15:22:21.367Z,10.50
2019-03-09T15:24:50.448Z,10.50
2019-03-09T15:27:19.639Z,10.60
2019-03-09T15:29:48.766Z,10.60
2019-03-09T15:32:17.927Z,10.60
2019-03-09T15:34:47.043Z,10.60
2019-03-09T15:37:16.158Z,10.60
2019-03-09T15:39:45.283Z,10.60
2019-03-09T15:42:14.397Z,10.70
2019-03-09T15:44:43.511Z,10.70
2019-03-09T15:47:12.731Z,10.80
2019-03-09T15:49:41.832Z,10.80
2019-03-09T15:52:11.029Z,10.80
2019-03-09T15:54:40.225Z,10.80
2019-03-09T15:57:09.353Z,10.90
2019-03-09T15:59:38.446Z,10.90
2019-03-09T16:02:11.821Z,10.80
2019-03-09T16:04:41.006Z,10.80
2019-03-09T16:07:10.195Z,10.80
2019-03-09T16:09:39.343Z,10.80
2019-03-09T16:12:08.437Z,10.70
2019-03-09T16:14:37.563Z,10.70
2019-03-09T16:17:07.571Z,10.70
2019-03-09T16:19:36.679Z,10.80
2019-03-09T16:22:06.013Z,10.70
2019-03-09T16:24:35.203Z,10.80
2019-03-09T16:27:04.321Z,10.80
2019-03-09T16:29:33.391Z,10.80
2019-03-09T16:32:02.465Z,10.70
2019-03-09T16:34:31.634Z,10.60
2019-03-09T16:37:00.720Z,10.60
2019-03-09T16:39:29.853Z,10.50
2019-03-09T16:42:00.147Z,10.50
2019-03-09T16:44:29.273Z,10.40
2019-03-09T16:46:58.475Z,10.50
2019-03-09T16:49:27.618Z,10.50
2019-03-09T16:51:56.708Z,10.50
2019-03-09T16:54:25.801Z,10.40
2019-03-09T16:56:54.980Z,10.30
2019-03-09T16:59:24.095Z,10.30
2019-03-09T17:01:53.185Z,10.30
2019-03-09T17:04:22.377Z,10.20
2019-03-09T17:06:51.562Z,10.20
2019-03-09T17:09:20.671Z,10.20
2019-03-09T17:11:49.820Z,10.20
2019-03-09T17:14:18.981Z,10.20
2019-03-09T17:16:48.133Z,10.20
2019-03-09T17:19:17.251Z,10.20
2019-03-09T17:21:46.353Z,10.20
2019-03-09T17:24:15.462Z,10.20
2019-03-09T17:26:44.549Z,10.30
2019-03-09T17:29:13.635Z,10.30
2019-03-09T17:31:42.781Z,10.30
2019-03-09T17:34:11.922Z,10.30
2019-03-09T17:36:41.079Z,10.20
2019-03-09T17:39:10.641Z,10.20
2019-03-09T17:41:39.755Z,10.20
2019-03-09T17:44:08.811Z,10.20
2019-03-09T17:46:37.906Z,10.20
2019-03-09T17:49:07.005Z,10.30
2019-03-09T17:51:36.126Z,10.30
2019-03-09T17:54:05.321Z,10.30
2019-03-09T17:56:34.373Z,10.20
2019-03-09T17:59:03.467Z,10.30
2019-03-09T18:01:32.590Z,10.30
2019-03-09T18:04:01.673Z,10.30
2019-03-09T18:06:30.766Z,10.30
2019-03-09T18:08:59.850Z,10.30
2019-03-09T18:11:29.129Z,10.20
2019-03-09T18:14:06.672Z,10.20
2019-03-09T18:16:29.480Z,10.30
2019-03-09T18:18:58.561Z,10.30
2019-03-09T18:21:27.638Z,10.30
2019-03-09T18:23:56.739Z,10.30
2019-03-09T18:26:25.832Z,10.30
2019-03-09T18:28:54.947Z,10.30
2019-03-09T18:31:24.069Z,10.30
2019-03-09T18:33:53.216Z,10.30
2019-03-09T18:36:22.404Z,10.30
2019-03-09T18:38:51.514Z,10.30
2019-03-09T18:41:20.666Z,10.30
2019-03-09T18:43:49.747Z,10.30
2019-03-09T18:46:18.848Z,10.30
2019-03-09T18:48:47.967Z,10.30
2019-03-09T18:51:17.061Z,10.30
2019-03-09T18:53:46.183Z,10.20
2019-03-09T18:56:15.315Z,10.20
2019-03-09T18:58:44.411Z,10.20
2019-03-09T19:01:13.584Z,10.20
2019-03-09T19:03:42.780Z,10.30
2019-03-09T19:06:11.893Z,10.30
2019-03-09T19:08:40.987Z,10.20
2019-03-09T19:11:10.093Z,10.30
2019-03-09T19:13:39.199Z,10.30
2019-03-09T19:16:08.314Z,10.30
2019-03-09T19:18:37.396Z,10.30
2019-03-09T19:21:06.480Z,10.30
2019-03-09T19:23:35.575Z,10.30
2019-03-09T19:26:04.631Z,10.30
2019-03-09T19:28:33.838Z,10.30
2019-03-09T19:31:02.956Z,10.30
2019-03-09T19:33:32.049Z,10.30
2019-03-09T19:36:01.140Z,10.30
2019-03-09T19:38:30.256Z,10.30
2019-03-09T19:40:59.319Z,10.30
2019-03-09T19:43:28.502Z,10.40
2019-03-09T19:45:57.618Z,10.40
2019-03-09T19:48:26.697Z,10.30
2019-03-09T19:50:55.801Z,10.30
2019-03-09T19:53:24.908Z,10.40
2019-03-09T19:55:54.018Z,10.40
2019-03-09T19:58:23.127Z,10.30
2019-03-09T20:00:52.230Z,10.30
2019-03-09T20:03:21.330Z,10.30
2019-03-09T20:05:50.530Z,10.30
2019-03-09T20:08:19.638Z,10.30
2019-03-09T20:10:48.745Z,10.30
2019-03-09T20:13:17.841Z,10.30
2019-03-09T20:15:47.068Z,10.30
2019-03-09T20:18:16.164Z,10.40
2019-03-09T20:20:45.270Z,10.40
2019-03-09T20:23:14.371Z,10.40
2019-03-09T20:25:43.492Z,10.40
2019-03-09T20:28:12.628Z,10.40
2019-03-09T20:30:41.755Z,10.40
2019-03-09T20:33:10.964Z,10.40
2019-03-09T20:35:40.106Z,10.40
2019-03-09T20:38:09.230Z,10.40
2019-03-09T20:40:38.327Z,10.50
2019-03-09T20:43:07.492Z,10.50
2019-03-09T20:45:36.578Z,10.60
2019-03-09T20:48:05.734Z,10.60
2019-03-09T20:50:34.856Z,10.60
2019-03-09T20:53:03.958Z,10.60
2019-03-09T20:55:33.062Z,10.60
2019-03-09T20:58:02.196Z,10.60
2019-03-09T21:00:31.316Z,10.60
2019-03-09T21:03:00.411Z,10.60
2019-03-09T21:05:29.576Z,10.70
2019-03-09T21:07:58.758Z,10.60
2019-03-09T21:10:27.894Z,10.70
2019-03-09T21:13:01.861Z,10.60
2019-03-09T21:15:31.076Z,10.60
2019-03-09T21:18:00.239Z,10.60
2019-03-09T21:20:29.323Z,10.60
2019-03-09T21:22:58.485Z,10.60
2019-03-09T21:25:27.572Z,10.60
2019-03-09T21:27:56.678Z,10.60
2019-03-09T21:30:25.766Z,10.60
2019-03-09T21:32:54.888Z,10.70
2019-03-09T21:35:24.032Z,10.60
2019-03-09T21:37:53.132Z,10.60
2019-03-09T21:40:22.239Z,10.50
2019-03-09T21:42:51.338Z,10.50
2019-03-09T21:45:20.463Z,10.60
2019-03-09T21:47:49.566Z,10.60
2019-03-09T21:50:18.697Z,10.60
2019-03-09T21:52:47.766Z,10.60
2019-03-09T21:55:16.904Z,10.60
2019-03-09T21:57:45.958Z,10.60
2019-03-09T22:00:15.282Z,10.60
2019-03-09T22:02:44.496Z,10.60
2019-03-09T22:05:13.582Z,10.60
2019-03-09T22:07:42.690Z,10.60
2019-03-09T22:10:11.773Z,10.60
2019-03-09T22:12:40.903Z,10.60
2019-03-09T22:15:10.345Z,10.60
2019-03-09T22:17:39.493Z,10.60
2019-03-09T22:20:08.848Z,10.60
2019-03-09T22:22:37.932Z,10.60
2019-03-09T22:25:08.211Z,10.50
2019-03-09T22:27:37.383Z,10.50
2019-03-09T22:30:07.688Z,10.50
2019-03-09T22:32:36.885Z,10.50
2019-03-09T22:35:05.989Z,10.40
2019-03-09T22:37:35.081Z,10.40
2019-03-09T22:40:04.184Z,10.40
2019-03-09T22:42:33.263Z,10.50
2019-03-09T22:45:02.350Z,10.40
2019-03-09T22:47:31.425Z,10.40
2019-03-09T22:50:00.543Z,10.40
2019-03-09T22:52:29.630Z,10.30
2019-03-09T22:54:58.719Z,10.30
2019-03-09T22:57:27.811Z,10.40
2019-03-09T22:59:56.893Z,10.40
2019-03-09T23:02:25.977Z,10.40
2019-03-09T23:04:55.061Z,10.50
2019-03-09T23:07:24.194Z,10.40
2019-03-09T23:09:53.303Z,10.40
2019-03-09T23:12:22.404Z,10.40
2019-03-09T23:14:51.529Z,10.40
2019-03-09T23:17:20.645Z,10.40
2019-03-09T23:19:49.733Z,10.30
2019-03-09T23:22:18.821Z,10.30
2019-03-09T23:24:47.917Z,10.30
2019-03-09T23:27:17.042Z,10.30
2019-03-09T23:29:46.204Z,10.30
2019-03-09T23:32:15.314Z,10.30
2019-03-09T23:34:44.429Z,10.30
2019-03-09T23:37:13.511Z,10.30
2019-03-09T23:39:42.661Z,10.30
2019-03-09T23:42:11.805Z,10.30
2019-03-09T23:44:40.908Z,10.30
2019-03-09T23:47:09.984Z,10.30
2019-03-09T23:49:39.079Z,10.30
2019-03-09T23:52:08.161Z,10.30
2019-03-09T23:54:37.355Z,10.30
2019-03-09T23:57:06.513Z,10.30
2019-03-09T23:59:35.595Z,10.30
